Time;durP1;ratioP1;P1;durP2;ratioP2;P2;SDS_P1;SDS_P2;PMS_P1;PMS_P2;Temp;Humidity;BMP_temperature;BMP_pressure;BME280_temperature;BME280_humidity;BME280_pressure;Samples;Min_cycle;Max_cycle;Signal;HPM_P1;HPM_P2
2022/06/01 00:00:20;;;;;;;12.47;9.20;;;11.60;99.90;;;;;;5029920;28;20045;-72
2022/06/01 00:02:47;;;;;;;11.57;10.37;;;11.60;99.90;;;;;;4988850;28;20411;-71
2022/06/01 00:05:13;;;;;;;11.30;10.10;;;11.50;99.90;;;;;;4985283;28;20054;-71
2022/06/01 00:07:39;;;;;;;16.03;12.83;;;11.50;99.90;;;;;;4979856;28;20052;-71
2022/06/01 00:10:06;;;;;;;14.80;13.07;;;11.50;99.90;;;;;;4985640;28;20509;-72
2022/06/01 00:12:34;;;;;;;18.47;13.97;;;11.50;99.90;;;;;;4991910;28;20186;-71
2022/06/01 00:15:02;;;;;;;17.50;13.60;;;11.50;99.90;;;;;;4986716;28;20137;-72
2022/06/01 00:17:28;;;;;;;11.67;10.47;;;11.50;99.90;;;;;;4997191;28;20132;-73
2022/06/01 00:19:55;;;;;;;10.53;9.37;;;11.50;99.90;;;;;;4988750;28;20571;-72
2022/06/01 00:22:21;;;;;;;9.93;8.30;;;11.50;99.90;;;;;;4988057;28;20443;-72
2022/06/01 00:24:47;;;;;;;12.67;9.17;;;11.50;99.90;;;;;;4979382;28;20230;-72
2022/06/01 00:27:14;;;;;;;11.60;10.37;;;11.40;99.90;;;;;;4997454;28;20113;-72
2022/06/01 00:29:40;;;;;;;12.87;10.47;;;11.40;99.90;;;;;;4993129;28;20127;-72
2022/06/01 00:32:08;;;;;;;15.30;11.03;;;11.30;99.90;;;;;;4996122;28;20899;-71
2022/06/01 00:34:34;;;;;;;12.97;11.60;;;11.20;99.90;;;;;;5021291;28;20080;-72
2022/06/01 00:37:01;;;;;;;15.07;11.33;;;11.20;99.90;;;;;;4995794;28;20037;-71
2022/06/01 00:39:28;;;;;;;14.40;12.07;;;11.30;99.90;;;;;;4996550;28;20056;-72
2022/06/01 00:41:54;;;;;;;14.33;12.83;;;11.20;99.90;;;;;;4993919;28;20064;-72
2022/06/01 00:44:20;;;;;;;16.60;13.20;;;11.20;99.90;;;;;;4987723;28;20041;-72
2022/06/01 00:46:45;;;;;;;15.20;13.67;;;11.10;99.90;;;;;;5007715;28;20507;-72
2022/06/01 00:49:15;;;;;;;15.33;13.80;;;11.20;99.90;;;;;;5015823;28;20760;-72
2022/06/01 00:51:41;;;;;;;16.10;14.50;;;11.10;99.90;;;;;;4996903;28;20384;-72
2022/06/01 00:54:09;;;;;;;16.83;14.43;;;11.10;99.90;;;;;;4994027;28;20054;-72
2022/06/01 00:56:42;;;;;;;15.43;13.70;;;11.10;99.90;;;;;;4986951;28;20050;-71
2022/06/01 00:59:12;;;;;;;16.10;14.40;;;11.10;99.90;;;;;;5017820;28;20404;-72
2022/06/01 01:01:39;;;;;;;17.90;15.20;;;11.10;99.90;;;;;;4986400;28;20069;-72
2022/06/01 01:04:05;;;;;;;18.57;15.13;;;11.00;99.90;;;;;;4994221;28;20491;-72
2022/06/01 01:06:33;;;;;;;17.77;15.10;;;10.90;99.90;;;;;;5006348;28;20045;-71
2022/06/01 01:09:00;;;;;;;18.90;16.37;;;11.00;99.90;;;;;;5015620;28;20107;-72
2022/06/01 01:11:32;;;;;;;18.93;15.57;;;10.90;99.90;;;;;;4992652;28;20053;-72
2022/06/01 01:13:59;;;;;;;18.83;15.83;;;10.90;99.90;;;;;;4999825;28;20065;-72
2022/06/01 01:16:26;;;;;;;20.97;17.03;;;10.90;99.90;;;;;;4979340;28;20038;-72
2022/06/01 01:18:54;;;;;;;19.03;16.10;;;10.90;99.90;;;;;;4961190;28;20042;-74
2022/06/01 01:21:27;;;;;;;16.73;14.30;;;10.90;99.90;;;;;;4964335;28;20488;-75
2022/06/01 01:24:02;;;;;;;16.88;14.70;;;10.90;99.90;;;;;;4992216;28;20077;-75
2022/06/01 01:26:31;;;;;;;18.33;15.63;;;10.80;99.90;;;;;;4993020;28;20077;-75
2022/06/01 01:28:57;;;;;;;19.27;15.53;;;10.90;99.90;;;;;;5015609;28;20053;-75
2022/06/01 01:31:24;;;;;;;16.50;14.77;;;10.90;99.90;;;;;;4985934;28;20046;-75
2022/06/01 01:33:52;;;;;;;17.03;15.20;;;10.80;99.90;;;;;;4996774;28;20084;-75
2022/06/01 01:36:23;;;;;;;18.13;16.23;;;10.80;99.90;;;;;;4982863;28;20054;-75
2022/06/01 01:38:54;;;;;;;16.87;15.07;;;10.80;99.90;;;;;;4979463;28;20046;-76
2022/06/01 01:41:27;;;;;;;17.47;15.27;;;10.80;99.90;;;;;;5010419;28;20049;-75
2022/06/01 01:44:01;;;;;;;17.13;15.43;;;10.80;99.90;;;;;;5001861;28;20045;-75
2022/06/01 01:46:29;;;;;;;18.63;15.93;;;10.70;99.90;;;;;;4995751;28;20050;-74
2022/06/01 01:48:55;;;;;;;23.23;16.60;;;10.70;99.90;;;;;;4998310;28;20128;-75
2022/06/01 01:51:22;;;;;;;20.73;16.40;;;10.80;99.90;;;;;;4996781;28;20552;-75
2022/06/01 01:53:48;;;;;;;21.67;16.37;;;10.70;99.90;;;;;;4997648;28;20068;-75
2022/06/01 01:56:24;;;;;;;19.40;15.83;;;10.70;99.90;;;;;;4983881;28;20464;-75
2022/06/01 01:59:02;;;;;;;20.60;17.47;;;10.70;99.90;;;;;;5015945;28;20123;-75
2022/06/01 02:01:37;;;;;;;22.37;17.53;;;10.70;99.90;;;;;;4989813;28;20073;-77
2022/06/01 02:06:03;;;;;;;18.00;16.17;;;10.70;99.90;;;;;;4993606;28;20041;-75
2022/06/01 02:07:01;;;;;;;19.03;16.83;;;10.70;99.90;;;;;;5006175;28;20049;-76
2022/06/01 02:12:40;;;;;;;24.63;18.77;;;10.70;99.90;;;;;;4996572;28;20076;-75
2022/06/01 02:14:58;;;;;;;21.70;16.90;;;10.70;99.90;;;;;;4997414;28;20056;-75
2022/06/01 02:17:30;;;;;;;20.20;18.03;;;10.70;99.90;;;;;;5017157;28;20132;-76
2022/06/01 02:19:59;;;;;;;20.47;18.27;;;10.70;99.90;;;;;;5005419;28;22027;-75
2022/06/01 02:22:25;;;;;;;21.40;17.33;;;10.80;99.90;;;;;;4987457;28;20049;-75
2022/06/01 02:24:51;;;;;;;19.67;17.57;;;10.80;99.90;;;;;;4993146;28;20050;-75
2022/06/01 02:27:19;;;;;;;22.33;19.70;;;10.80;99.90;;;;;;4992984;28;20077;-75
2022/06/01 02:29:49;;;;;;;19.87;17.80;;;10.80;99.90;;;;;;5000647;28;20041;-75
2022/06/01 02:32:18;;;;;;;22.10;19.40;;;10.80;99.90;;;;;;5004865;28;20065;-76
2022/06/01 02:34:46;;;;;;;20.57;18.57;;;10.90;99.90;;;;;;4997087;28;20515;-75
2022/06/01 02:37:14;;;;;;;22.87;19.57;;;10.90;99.90;;;;;;4996715;28;20038;-74
2022/06/01 02:39:43;;;;;;;22.53;20.17;;;10.90;99.90;;;;;;4997098;28;20129;-74
2022/06/01 02:42:26;;;;;;;23.67;19.70;;;10.90;99.90;;;;;;4995932;28;20095;-76
2022/06/01 02:44:53;;;;;;;21.97;19.80;;;11.00;99.90;;;;;;4993817;28;20042;-75
2022/06/01 02:47:20;;;;;;;24.63;22.00;;;10.90;99.90;;;;;;4988584;28;20332;-75
2022/06/01 02:49:46;;;;;;;22.13;19.83;;;10.90;99.90;;;;;;4997739;28;20110;-74
2022/06/01 02:52:12;;;;;;;25.03;21.93;;;10.90;99.90;;;;;;4996805;28;20041;-77
2022/06/01 02:54:38;;;;;;;23.47;21.07;;;11.00;99.90;;;;;;4992911;28;20473;-75
2022/06/01 02:57:04;;;;;;;23.80;21.33;;;11.00;99.90;;;;;;4982628;28;20046;-76
2022/06/01 02:59:29;;;;;;;24.73;21.60;;;11.00;99.90;;;;;;5004120;28;20511;-75
2022/06/01 03:01:55;;;;;;;24.03;21.50;;;11.00;99.90;;;;;;5029882;28;20133;-76
2022/06/01 03:04:22;;;;;;;25.30;22.53;;;11.00;99.90;;;;;;5023144;28;20077;-75
2022/06/01 03:06:48;;;;;;;25.33;22.70;;;11.00;99.90;;;;;;4986796;28;20046;-75
2022/06/01 03:09:14;;;;;;;24.23;21.63;;;11.00;99.90;;;;;;4969670;28;20422;-75
2022/06/01 03:11:39;;;;;;;25.17;22.40;;;11.00;99.90;;;;;;4987053;28;20103;-78
2022/06/01 03:14:05;;;;;;;25.97;23.27;;;11.00;99.90;;;;;;5006369;28;20041;-75
2022/06/01 03:16:31;;;;;;;25.63;22.40;;;11.00;99.90;;;;;;4991840;28;20057;-74
2022/06/01 03:18:57;;;;;;;28.30;24.10;;;10.90;99.90;;;;;;4995285;28;20046;-75
2022/06/01 03:21:24;;;;;;;28.07;25.20;;;10.90;99.90;;;;;;4995383;28;20096;-75
2022/06/01 03:23:49;;;;;;;26.63;23.83;;;10.90;99.90;;;;;;4987005;28;20151;-74
2022/06/01 03:26:15;;;;;;;27.73;24.83;;;10.90;99.90;;;;;;4990202;28;20041;-75
2022/06/01 03:28:42;;;;;;;27.37;24.67;;;10.90;99.90;;;;;;4997962;28;20377;-75
2022/06/01 03:31:07;;;;;;;26.60;23.80;;;10.90;99.90;;;;;;4977587;28;20038;-74
2022/06/01 03:33:35;;;;;;;26.07;23.23;;;10.90;99.90;;;;;;4989172;28;20120;-77
2022/06/01 03:36:01;;;;;;;28.10;24.27;;;11.00;99.90;;;;;;4987215;28;20037;-75
2022/06/01 03:38:28;;;;;;;26.80;24.10;;;10.90;99.90;;;;;;4994364;28;20513;-75
2022/06/01 03:40:54;;;;;;;28.40;25.40;;;10.90;99.90;;;;;;4988413;28;20050;-74
2022/06/01 03:43:20;;;;;;;28.27;25.20;;;10.90;99.90;;;;;;4982210;28;20050;-75
2022/06/01 03:46:00;;;;;;;30.63;26.40;;;10.90;99.90;;;;;;4991092;28;20112;-75
2022/06/01 03:48:28;;;;;;;28.70;25.60;;;11.00;99.90;;;;;;4989893;28;20042;-74
2022/06/01 03:50:54;;;;;;;28.40;25.40;;;11.00;99.90;;;;;;4995386;28;20112;-74
2022/06/01 03:53:20;;;;;;;29.67;26.67;;;11.00;99.90;;;;;;5009369;28;20499;-74
2022/06/01 03:55:47;;;;;;;29.63;26.50;;;10.90;99.90;;;;;;4999084;28;20429;-75
2022/06/01 03:58:14;;;;;;;27.93;25.03;;;11.00;99.90;;;;;;5017500;28;20133;-77
2022/06/01 04:00:41;;;;;;;29.43;26.40;;;11.00;99.90;;;;;;5000180;28;20084;-75
2022/06/01 04:03:07;;;;;;;27.80;25.00;;;11.00;99.90;;;;;;4982675;28;20060;-74
2022/06/01 04:05:33;;;;;;;27.93;25.03;;;11.00;99.90;;;;;;5001994;28;20309;-74
2022/06/01 04:07:58;;;;;;;28.03;25.17;;;11.00;99.90;;;;;;4981629;28;20426;-75
2022/06/01 04:10:24;;;;;;;27.17;24.37;;;11.10;99.90;;;;;;4981092;28;20467;-75
2022/06/01 04:12:51;;;;;;;29.40;26.23;;;11.10;99.90;;;;;;4998189;28;20046;-75
2022/06/01 04:15:17;;;;;;;27.93;25.13;;;11.10;99.90;;;;;;4995503;28;20414;-74
2022/06/01 04:17:43;;;;;;;28.33;25.43;;;11.10;99.90;;;;;;4987935;28;20055;-75
2022/06/01 04:20:10;;;;;;;29.57;26.53;;;11.10;99.90;;;;;;5004006;28;20041;-74
2022/06/01 04:22:39;;;;;;;28.53;25.40;;;11.10;99.90;;;;;;5010106;28;20423;-76
2022/06/01 04:25:05;;;;;;;28.37;25.57;;;11.10;99.90;;;;;;5004762;28;20044;-74
2022/06/01 04:27:31;;;;;;;29.97;26.97;;;11.10;99.90;;;;;;5007457;28;20080;-75
2022/06/01 04:29:58;;;;;;;28.97;26.17;;;11.20;99.90;;;;;;5018863;28;20068;-74
2022/06/01 04:32:26;;;;;;;30.40;27.10;;;11.20;99.90;;;;;;5006390;28;20126;-74
2022/06/01 04:34:52;;;;;;;29.07;26.10;;;11.20;99.90;;;;;;5013700;28;20392;-74
2022/06/01 04:37:18;;;;;;;29.20;26.20;;;11.20;99.90;;;;;;4992731;28;20045;-76
2022/06/01 04:39:44;;;;;;;30.27;27.03;;;11.20;99.90;;;;;;4979083;28;20069;-75
2022/06/01 04:42:10;;;;;;;29.73;26.80;;;11.20;99.90;;;;;;4990505;28;20136;-75
2022/06/01 04:44:35;;;;;;;30.90;27.70;;;11.20;99.90;;;;;;4996027;28;20060;-74
2022/06/01 04:47:04;;;;;;;31.10;27.77;;;11.20;99.90;;;;;;5001418;28;20396;-74
2022/06/01 04:49:30;;;;;;;29.93;26.90;;;11.20;99.90;;;;;;5001354;28;20049;-75
2022/06/01 04:51:56;;;;;;;29.90;26.70;;;11.20;99.90;;;;;;5008504;28;20049;-74
2022/06/01 04:54:21;;;;;;;30.13;26.70;;;11.20;99.90;;;;;;4980522;28;20435;-75
2022/06/01 04:56:47;;;;;;;31.33;27.93;;;11.20;99.90;;;;;;4978489;28;20440;-75
2022/06/01 04:59:16;;;;;;;29.07;26.03;;;11.20;99.90;;;;;;4985441;28;20112;-75
2022/06/01 05:01:43;;;;;;;31.27;27.97;;;11.30;99.90;;;;;;4999901;28;20388;-75
2022/06/01 05:04:10;;;;;;;29.93;26.97;;;11.30;99.90;;;;;;5001677;28;20452;-76
2022/06/01 05:06:36;;;;;;;30.97;27.87;;;11.40;99.90;;;;;;5023864;28;20038;-75
2022/06/01 05:09:02;;;;;;;29.80;26.77;;;11.40;99.90;;;;;;5001541;28;20065;-75
2022/06/01 05:11:27;;;;;;;29.67;26.67;;;11.40;99.90;;;;;;4996471;28;20049;-75
2022/06/01 05:13:54;;;;;;;31.10;27.77;;;11.50;99.90;;;;;;4990129;28;20052;-76
2022/06/01 05:16:20;;;;;;;31.37;28.03;;;11.50;99.90;;;;;;5005229;28;20042;-74
2022/06/01 05:18:46;;;;;;;33.50;29.90;;;11.50;99.90;;;;;;4995590;28;20052;-75
2022/06/01 05:21:13;;;;;;;31.80;28.43;;;11.60;99.90;;;;;;4996397;28;20045;-75
2022/06/01 05:23:39;;;;;;;32.13;28.63;;;11.50;99.90;;;;;;4985158;28;20500;-75
2022/06/01 05:26:05;;;;;;;30.63;27.40;;;11.50;99.90;;;;;;4982344;28;20063;-75
2022/06/01 05:28:33;;;;;;;31.63;27.67;;;11.50;99.90;;;;;;4997248;28;20032;-74
2022/06/01 05:31:01;;;;;;;28.70;25.70;;;11.50;99.90;;;;;;5000820;28;20048;-74
2022/06/01 05:33:27;;;;;;;27.70;24.47;;;11.50;99.90;;;;;;5006641;28;20046;-74
2022/06/01 05:35:53;;;;;;;29.17;26.07;;;11.50;99.90;;;;;;5012148;28;20492;-74
2022/06/01 05:38:20;;;;;;;28.00;25.00;;;11.50;99.90;;;;;;4980669;28;20053;-74
2022/06/01 05:40:46;;;;;;;25.43;22.90;;;11.50;99.90;;;;;;4993833;28;20061;-75
2022/06/01 05:43:14;;;;;;;27.40;24.10;;;11.60;99.90;;;;;;4988685;28;20111;-76
2022/06/01 05:45:40;;;;;;;25.87;22.87;;;11.60;99.90;;;;;;5008329;28;20414;-75
2022/06/01 05:48:08;;;;;;;24.97;22.27;;;11.70;99.90;;;;;;5013543;28;20041;-75
2022/06/01 05:50:34;;;;;;;25.03;22.43;;;11.70;99.90;;;;;;4980694;28;20042;-75
2022/06/01 05:53:00;;;;;;;25.73;23.23;;;11.80;99.90;;;;;;4980763;28;20423;-75
2022/06/01 05:55:27;;;;;;;26.90;23.93;;;11.80;99.90;;;;;;4997847;28;20045;-75
2022/06/01 05:57:53;;;;;;;26.80;22.93;;;11.90;99.90;;;;;;5002465;28;20077;-75
2022/06/01 06:00:19;;;;;;;26.53;23.90;;;11.90;99.90;;;;;;5004352;28;20511;-76
2022/06/01 06:02:45;;;;;;;28.07;24.40;;;11.90;99.90;;;;;;5000394;28;20065;-74
2022/06/01 06:07:56;;;;;;;25.03;22.47;;;12.10;99.90;;;;;;4996678;28;20037;-76
2022/06/01 06:10:22;;;;;;;25.83;23.13;;;12.10;99.90;;;;;;4976994;28;20037;-75
2022/06/01 06:12:49;;;;;;;27.20;24.50;;;12.20;99.90;;;;;;5015345;28;20257;-74
2022/06/01 06:15:16;;;;;;;27.17;24.37;;;12.30;99.90;;;;;;4995656;28;20152;-74
2022/06/01 06:17:42;;;;;;;28.00;25.00;;;12.40;99.90;;;;;;4996319;28;20499;-75
2022/06/01 06:20:09;;;;;;;27.87;24.97;;;12.40;99.90;;;;;;4981990;28;20042;-75
2022/06/01 06:22:35;;;;;;;30.47;27.17;;;12.40;99.90;;;;;;4977244;28;20038;-74
2022/06/01 06:25:01;;;;;;;32.53;28.17;;;12.40;99.90;;;;;;4994704;28;20140;-75
2022/06/01 06:27:27;;;;;;;27.50;24.60;;;12.50;99.90;;;;;;5009975;28;20045;-75
2022/06/01 06:29:54;;;;;;;29.03;26.03;;;12.60;99.90;;;;;;4998859;28;20049;-74
2022/06/01 06:32:19;;;;;;;27.20;24.37;;;12.70;99.90;;;;;;4995701;28;20100;-75
2022/06/01 06:34:45;;;;;;;28.97;26.07;;;12.80;99.90;;;;;;4984437;28;20058;-77
2022/06/01 06:37:11;;;;;;;27.80;24.87;;;12.80;99.90;;;;;;4994281;28;20057;-74
2022/06/01 06:39:37;;;;;;;27.63;24.83;;;12.90;99.90;;;;;;5000294;28;20046;-74
2022/06/01 06:42:03;;;;;;;26.80;24.10;;;12.80;99.90;;;;;;5003972;28;20132;-74
2022/06/01 06:44:29;;;;;;;26.37;23.77;;;12.90;99.90;;;;;;4979097;28;20060;-74
2022/06/01 06:46:56;;;;;;;26.73;23.90;;;12.90;99.90;;;;;;4991120;28;20128;-75
2022/06/01 06:49:22;;;;;;;27.53;24.70;;;12.80;99.90;;;;;;4994017;28;20500;-74
2022/06/01 06:51:49;;;;;;;27.83;25.10;;;12.80;99.90;;;;;;4994911;28;20116;-75
2022/06/01 06:54:15;;;;;;;27.20;24.13;;;12.90;99.90;;;;;;4994541;28;20097;-75
2022/06/01 06:56:41;;;;;;;26.00;23.27;;;12.90;99.90;;;;;;5005063;28;20443;-74
2022/06/01 06:59:07;;;;;;;24.77;21.90;;;13.00;99.90;;;;;;4987696;28;20420;-75
2022/06/01 07:01:32;;;;;;;24.10;21.50;;;13.10;99.90;;;;;;4978645;28;20049;-75
2022/06/01 07:03:59;;;;;;;22.60;20.23;;;13.20;99.90;;;;;;4993538;28;20038;-77
2022/06/01 07:06:25;;;;;;;21.53;19.33;;;13.30;99.90;;;;;;4994687;28;20048;-75
2022/06/01 07:08:54;;;;;;;21.73;19.20;;;13.40;99.90;;;;;;5010869;28;20119;-76
2022/06/01 07:11:25;;;;;;;20.07;17.97;;;13.40;99.90;;;;;;4988580;28;20045;-75
2022/06/01 07:13:51;;;;;;;20.80;18.23;;;13.30;99.90;;;;;;4990113;28;20042;-75
2022/06/01 07:16:19;;;;;;;20.90;18.30;;;13.30;99.90;;;;;;4983598;28;20156;-74
2022/06/01 07:18:47;;;;;;;19.37;17.47;;;13.30;99.90;;;;;;4993090;28;20083;-75
2022/06/01 07:21:15;;;;;;;19.07;17.17;;;13.20;99.90;;;;;;4996163;28;20069;-77
2022/06/01 07:23:40;;;;;;;18.23;16.30;;;13.30;99.90;;;;;;5012508;28;20140;-76
2022/06/01 07:26:08;;;;;;;19.30;17.20;;;13.40;99.90;;;;;;4992780;28;20077;-75
2022/06/01 07:28:35;;;;;;;18.27;16.33;;;13.50;99.90;;;;;;5009218;28;20038;-74
2022/06/01 07:31:01;;;;;;;17.73;15.87;;;13.70;99.90;;;;;;5013592;28;20074;-75
2022/06/01 07:33:28;;;;;;;17.50;15.63;;;13.90;99.90;;;;;;5017435;28;20121;-75
2022/06/01 07:35:55;;;;;;;14.53;13.03;;;14.10;99.90;;;;;;5003071;28;20049;-76
2022/06/01 07:43:56;;;;;;;12.03;10.40;;;14.30;99.90;;;;;;4997956;28;20461;-75
2022/06/01 07:46:22;;;;;;;17.27;12.30;;;14.20;99.90;;;;;;4995833;28;20410;-75
2022/06/01 07:48:49;;;;;;;14.57;11.63;;;14.20;99.90;;;;;;4977471;28;20062;-75
2022/06/01 07:51:16;;;;;;;16.67;15.03;;;14.20;99.90;;;;;;4992091;28;20041;-75
2022/06/01 07:53:44;;;;;;;20.17;12.37;;;14.20;99.90;;;;;;5000906;28;20124;-73
2022/06/01 07:56:09;;;;;;;15.30;8.63;;;14.10;99.90;;;;;;4996948;28;20082;-74
2022/06/01 07:58:35;;;;;;;20.43;8.93;;;13.80;99.90;;;;;;4993508;28;20121;-77
2022/06/01 08:01:01;;;;;;;15.20;7.93;;;13.50;99.90;;;;;;4997080;28;20515;-77
2022/06/01 08:03:28;;;;;;;15.70;8.80;;;13.10;99.90;;;;;;4999999;28;20042;-78
2022/06/01 08:05:54;;;;;;;11.50;7.33;;;12.80;99.90;;;;;;4965525;28;20073;-79
2022/06/01 08:08:20;;;;;;;14.13;8.90;;;12.50;99.90;;;;;;4995740;28;20080;-77
2022/06/01 08:10:47;;;;;;;14.87;9.33;;;12.20;99.90;;;;;;4987579;28;20041;-78
2022/06/01 08:13:14;;;;;;;12.53;9.17;;;12.10;99.90;;;;;;5005914;28;20137;-78
2022/06/01 08:15:42;;;;;;;11.70;7.47;;;11.90;99.90;;;;;;4991291;28;20049;-78
2022/06/01 08:18:10;;;;;;;12.63;7.03;;;11.80;99.90;;;;;;4993261;28;20038;-78
2022/06/01 08:20:36;;;;;;;10.63;7.50;;;11.70;99.90;;;;;;4983201;28;20385;-78
2022/06/01 08:23:03;;;;;;;7.67;5.57;;;11.60;99.90;;;;;;4978411;28;20045;-78
2022/06/01 08:25:29;;;;;;;8.73;6.77;;;11.50;99.90;;;;;;4993523;28;20514;-80
2022/06/01 08:27:57;;;;;;;7.87;6.03;;;11.40;99.90;;;;;;4997560;28;20563;-78
2022/06/01 08:30:25;;;;;;;9.33;7.87;;;11.30;99.90;;;;;;4986162;28;20042;-79
2022/06/01 08:32:52;;;;;;;7.67;6.23;;;11.30;99.90;;;;;;4979345;28;20061;-78
2022/06/01 08:35:20;;;;;;;9.97;7.03;;;11.30;99.90;;;;;;5009763;28;20096;-77
2022/06/01 08:37:46;;;;;;;12.33;8.00;;;11.30;99.90;;;;;;4992950;28;20052;-78
2022/06/01 08:40:13;;;;;;;7.10;6.17;;;11.30;99.90;;;;;;4989242;28;20109;-78
2022/06/01 08:42:44;;;;;;;6.57;5.83;;;11.40;99.90;;;;;;4990151;28;20037;-77
2022/06/01 08:45:12;;;;;;;8.93;6.93;;;11.40;99.90;;;;;;4997009;28;20037;-78
2022/06/01 08:47:39;;;;;;;11.27;6.70;;;11.40;99.90;;;;;;4977606;28;20065;-77
2022/06/01 08:50:13;;;;;;;6.83;5.60;;;11.40;99.90;;;;;;5014911;28;20042;-78
2022/06/01 08:52:39;;;;;;;;;;;11.50;99.90;;;;;;4982238;28;20486;-78
2022/06/01 08:55:05;;;;;;;6.77;5.17;;;11.60;99.90;;;;;;4962397;28;19965;-77
2022/06/01 08:57:42;;;;;;;5.67;5.07;;;11.70;99.90;;;;;;4973351;28;20424;-78
2022/06/01 09:00:14;;;;;;;4.10;3.70;;;12.00;99.90;;;;;;4980937;28;20064;-77
2022/06/01 09:02:49;;;;;;;2.73;2.50;;;12.40;99.90;;;;;;4981376;28;20503;-77
2022/06/01 09:05:18;;;;;;;3.63;2.20;;;12.80;99.90;;;;;;5000053;28;20419;-77
2022/06/01 09:07:48;;;;;;;6.50;2.90;;;13.10;99.90;;;;;;4988522;28;20041;-77
2022/06/01 09:10:30;;;;;;;3.87;3.47;;;13.30;99.90;;;;;;4985806;28;20093;-77
2022/06/01 09:13:00;;;;;;;6.23;5.63;;;13.50;99.90;;;;;;4988764;28;20042;-77
2022/06/01 09:15:31;;;;;;;5.20;4.70;;;13.80;99.90;;;;;;4979621;28;20555;-78
2022/06/01 09:18:00;;;;;;;9.73;7.97;;;14.00;99.90;;;;;;4995160;28;20050;-78
2022/06/01 09:23:12;;;;;;;;;;;14.50;99.90;;;;;;4991778;28;20053;-77
2022/06/01 09:25:38;;;;;;;4.77;4.37;;;14.70;99.90;;;;;;4993928;28;20008;-77
2022/06/01 09:28:15;;;;;;;5.90;4.83;;;14.80;99.90;;;;;;4985083;28;20038;-80
2022/06/01 09:30:46;;;;;;;5.60;5.10;;;15.00;99.90;;;;;;5004994;28;20041;-77
2022/06/01 09:33:15;;;;;;;6.13;5.40;;;15.10;99.90;;;;;;4979777;28;20060;-77
2022/06/01 09:35:44;;;;;;;7.83;7.13;;;15.10;99.90;;;;;;4999633;28;20052;-77
2022/06/01 09:38:18;;;;;;;6.50;5.90;;;15.30;99.90;;;;;;5009696;28;20053;-78
2022/06/01 09:40:44;;;;;;;;;;;15.60;99.90;;;;;;4973861;28;20045;-77
2022/06/01 09:43:22;;;;;;;7.50;5.70;;;15.90;99.90;;;;;;4990332;28;20016;-77
2022/06/01 09:45:53;;;;;;;6.67;4.53;;;15.90;99.90;;;;;;4992331;28;20042;-77
2022/06/01 09:48:27;;;;;;;5.87;4.70;;;16.10;99.90;;;;;;4982400;28;20046;-78
2022/06/01 09:51:00;;;;;;;7.25;4.80;;;16.30;99.90;;;;;;4982325;28;20120;-77
2022/06/01 09:53:32;;;;;;;5.25;4.28;;;16.50;99.90;;;;;;5008236;28;20099;-77
2022/06/01 09:56:00;;;;;;;6.03;4.83;;;16.80;99.90;;;;;;4983526;28;20054;-77
2022/06/01 10:06:53;;;;;;;5.27;3.83;;;16.20;99.90;;;;;;5011775;28;20082;-77
2022/06/01 10:09:22;;;;;;;4.33;3.93;;;15.80;99.90;;;;;;4973336;28;20076;-78
2022/06/01 10:11:51;;;;;;;5.27;4.43;;;15.40;99.90;;;;;;5001325;28;20045;-78
2022/06/01 10:14:20;;;;;;;8.93;5.27;;;15.00;99.90;;;;;;4980450;28;20052;-78
2022/06/01 10:16:56;;;;;;;9.37;4.80;;;14.70;99.90;;;;;;4970155;28;20046;-79
2022/06/01 10:19:28;;;;;;;7.40;5.30;;;14.60;99.90;;;;;;4986507;28;20412;-78
2022/06/01 10:21:58;;;;;;;5.80;4.70;;;14.60;99.90;;;;;;5008201;28;20050;-78
2022/06/01 10:24:29;;;;;;;5.30;4.80;;;15.10;99.90;;;;;;4989184;28;20049;-78
2022/06/01 10:26:58;;;;;;;5.37;4.50;;;15.70;99.90;;;;;;4988260;28;20125;-77
2022/06/01 10:29:29;;;;;;;4.67;4.20;;;16.10;99.90;;;;;;4994078;28;20088;-78
2022/06/01 10:32:03;;;;;;;5.80;3.77;;;16.00;99.90;;;;;;4993187;28;20041;-78
2022/06/01 10:34:35;;;;;;;6.30;3.90;;;15.70;99.90;;;;;;4978503;28;20149;-77
2022/06/01 10:37:09;;;;;;;4.63;3.00;;;15.40;99.90;;;;;;4973945;28;20072;-78
2022/06/01 10:39:42;;;;;;;3.53;2.72;;;15.20;99.90;;;;;;4975575;28;20073;-77
2022/06/01 10:42:16;;;;;;;4.33;3.30;;;15.10;99.90;;;;;;4990917;28;20092;-77
2022/06/01 10:44:46;;;;;;;8.47;3.17;;;15.30;99.90;;;;;;4989073;28;20055;-78
2022/06/01 10:47:18;;;;;;;3.87;3.10;;;16.00;99.90;;;;;;4985876;28;20049;-77
2022/06/01 10:49:49;;;;;;;3.97;2.70;;;16.70;99.90;;;;;;4969101;28;20045;-78
2022/06/01 10:52:29;;;;;;;3.73;3.00;;;17.10;99.90;;;;;;4964157;28;20042;-77
2022/06/01 10:55:05;;;;;;;4.20;2.60;;;17.00;99.90;;;;;;4999073;28;20136;-77
2022/06/01 10:57:32;;;;;;;3.83;2.23;;;16.70;99.90;;;;;;4986610;28;20139;-77
2022/06/01 10:59:58;;;;;;;5.47;2.90;;;16.30;99.90;;;;;;5002399;28;20107;-76
2022/06/01 11:02:56;;;;;;;3.93;1.70;;;16.00;99.90;;;;;;4992932;28;20467;-78
2022/06/01 11:05:34;;;;;;;8.73;1.30;;;15.50;99.90;;;;;;4964056;28;20438;-76
2022/06/01 11:08:13;;;;;;;6.10;1.43;;;15.10;99.90;;;;;;4970391;28;20069;-77
2022/06/01 11:10:49;;;;;;;4.60;1.40;;;14.70;99.90;;;;;;4963237;28;20057;-77
2022/06/01 11:13:35;;;;;;;3.03;2.10;;;14.60;99.90;;;;;;4981165;28;20088;-78
2022/06/01 11:16:13;;;;;;;4.57;2.50;;;14.70;99.90;;;;;;4991467;28;20049;-77
2022/06/01 11:18:54;;;;;;;8.23;2.10;;;15.30;99.90;;;;;;4979845;28;20046;-77
2022/06/01 11:21:28;;;;;;;5.50;2.77;;;16.10;99.90;;;;;;4999266;28;20042;-78
2022/06/01 11:24:07;;;;;;;2.80;2.60;;;16.90;99.90;;;;;;4988812;28;20054;-78
2022/06/01 11:26:46;;;;;;;2.60;2.20;;;17.80;99.90;;;;;;5011107;28;20455;-77
2022/06/01 11:29:47;;;;;;;3.57;2.67;;;18.30;99.90;;;;;;4990451;28;20069;-77
2022/06/01 11:32:17;;;;;;;2.80;2.00;;;18.20;99.90;;;;;;4996142;28;20038;-77
2022/06/01 11:34:48;;;;;;;1.60;1.43;;;18.20;99.90;;;;;;4986570;28;20068;-78
2022/06/01 11:37:21;;;;;;;3.17;1.13;;;18.40;99.90;;;;;;4984013;28;20038;-77
2022/06/01 11:39:52;;;;;;;2.95;1.27;;;18.20;99.90;;;;;;4985269;28;20049;-78
2022/06/01 11:42:26;;;;;;;2.93;1.50;;;17.80;99.90;;;;;;4980325;28;20038;-79
2022/06/01 11:44:58;;;;;;;2.75;1.23;;;17.40;99.90;;;;;;4974173;28;20038;-78
2022/06/01 11:47:25;;;;;;;2.03;1.37;;;16.90;99.90;;;;;;4970555;28;20041;-78
2022/06/01 11:50:11;;;;;;;1.37;1.10;;;16.40;99.90;;;;;;4975200;28;20049;-77
2022/06/01 11:52:45;;;;;;;1.83;1.30;;;16.00;99.90;;;;;;4987123;28;20046;-78
2022/06/01 11:55:19;;;;;;;;;;;15.60;99.90;;;;;;5002958;28;20042;-78
2022/06/01 11:57:50;;;;;;;3.42;1.65;;;15.20;99.90;;;;;;4989512;28;20410;-78
2022/06/01 12:00:19;;;;;;;3.13;2.00;;;14.90;99.90;;;;;;4972981;28;20053;-77
2022/06/01 12:02:53;;;;;;;3.57;2.30;;;14.60;99.90;;;;;;4983163;28;20050;-77
2022/06/01 12:05:29;;;;;;;2.92;2.17;;;14.50;99.90;;;;;;4968354;28;20530;-77
2022/06/01 12:08:01;;;;;;;4.70;2.67;;;14.40;99.90;;;;;;4979167;28;20527;-78
2022/06/01 12:10:28;;;;;;;3.17;2.40;;;14.40;99.90;;;;;;4993435;28;20058;-78
2022/06/01 12:13:04;;;;;;;5.30;2.20;;;14.40;99.90;;;;;;4989688;28;20129;-77
2022/06/01 12:15:34;;;;;;;2.20;1.77;;;14.60;99.90;;;;;;4986668;28;20618;-77
2022/06/01 12:18:07;;;;;;;4.03;1.70;;;14.70;99.90;;;;;;4979680;28;20515;-78
2022/06/01 12:20:47;;;;;;;3.23;1.70;;;14.70;99.90;;;;;;4993213;28;20088;-79
2022/06/01 12:29:35;;;;;;;1.40;1.00;;;15.10;99.90;;;;;;4983110;28;20065;-78
2022/06/01 12:32:12;;;;;;;2.30;1.00;;;15.40;99.90;;;;;;4993123;28;20073;-78
2022/06/01 12:34:58;;;;;;;3.40;1.53;;;15.70;99.90;;;;;;4982520;28;20423;-77
2022/06/01 12:37:32;;;;;;;1.90;1.70;;;16.10;99.90;;;;;;4990286;28;20501;-78
2022/06/01 12:40:01;;;;;;;;;;;16.80;99.90;;;;;;4993198;28;20457;-77
2022/06/01 12:42:30;;;;;;;3.27;2.10;;;17.30;99.90;;;;;;4977765;28;19929;-77
2022/06/01 12:44:59;;;;;;;3.17;2.47;;;17.90;99.90;;;;;;4993300;28;20044;-77
2022/06/01 12:47:28;;;;;;;2.93;1.90;;;18.40;99.90;;;;;;4991898;28;20542;-78
2022/06/01 12:49:54;;;;;;;3.13;1.90;;;19.00;99.90;;;;;;4988706;28;20501;-78
2022/06/01 12:52:27;;;;;;;4.23;1.90;;;19.20;99.90;;;;;;4997095;28;20046;-77
2022/06/01 12:54:55;;;;;;;3.03;1.83;;;19.50;99.90;;;;;;4992627;28;20617;-78
2022/06/01 12:57:28;;;;;;;1.90;1.60;;;19.40;99.90;;;;;;4972549;28;20056;-77
2022/06/01 12:59:57;;;;;;;3.00;1.93;;;19.10;99.90;;;;;;4991467;28;20041;-77
2022/06/01 13:02:23;;;;;;;2.30;1.30;;;19.20;99.90;;;;;;5000461;28;20042;-77
2022/06/01 13:04:54;;;;;;;2.47;1.43;;;18.90;99.90;;;;;;4992909;28;20049;-78
2022/06/01 13:07:23;;;;;;;2.87;1.37;;;18.50;99.90;;;;;;4992842;28;20800;-79
2022/06/01 13:09:58;;;;;;;5.03;1.50;;;17.90;99.90;;;;;;4978721;28;20030;-79
2022/06/01 13:12:28;;;;;;;4.40;1.60;;;17.10;99.90;;;;;;4992028;28;20050;-78